Time;durP1;ratioP1;P1;durP2;ratioP2;P2;SDS_P1;SDS_P2;PMS_P1;PMS_P2;Temp;Humidity;BMP_temperature;BMP_pressure;BME280_temperature;BME280_humidity;BME280_pressure;Samples;Min_cycle;Max_cycle;Signal;HPM_P1;HPM_P2
2023/04/02 00:00:34;;;;;;;7.43;5.90;;;;;;;6.00;100.00;-18189.63;4954876;28;20043;-81
2023/04/02 00:03:07;;;;;;;7.72;6.00;;;;;;;5.97;100.00;-18188.78;4954435;28;20039;-80
2023/04/02 00:06:01;;;;;;;7.97;6.15;;;;;;;5.99;100.00;-18189.22;4955338;28;20035;-80
2023/04/02 00:08:37;;;;;;;7.10;5.68;;;;;;;5.96;100.00;-18188.38;4954167;28;20047;-80
2023/04/02 00:11:03;;;;;;;7.80;5.70;;;;;;;5.88;100.00;-18186.31;4957524;28;20047;-81
2023/04/02 00:13:33;;;;;;;7.60;5.75;;;;;;;5.90;100.00;-18186.84;4955894;28;20837;-80
2023/04/02 00:16:02;;;;;;;9.20;5.50;;;;;;;5.83;100.00;-18184.91;4959754;28;20062;-81
2023/04/02 00:18:27;;;;;;;;;;;;;;;5.85;100.00;-18185.63;4956075;28;20043;-81
2023/04/02 00:21:09;;;;;;;8.18;6.10;;;;;;;5.79;100.00;-18183.81;4953739;28;19919;-81
2023/04/02 00:23:39;;;;;;;8.75;5.50;;;;;;;5.78;100.00;-18183.53;4964191;28;20126;-81
2023/04/02 00:26:20;;;;;;;8.95;6.50;;;;;;;5.79;100.00;-18183.97;4970688;28;20382;-81
2023/04/02 00:29:04;;;;;;;9.05;6.22;;;;;;;5.78;100.00;-18183.69;4956836;28;20051;-80
2023/04/02 00:31:31;;;;;;;9.10;6.68;;;;;;;5.79;100.00;-18183.81;4951287;28;20043;-80
2023/04/02 00:33:59;;;;;;;10.30;6.72;;;;;;;5.80;100.00;-18184.09;4969207;28;20075;-81
2023/04/02 00:36:29;;;;;;;9.38;7.03;;;;;;;5.69;100.00;-18181.19;4960253;28;20043;-81
2023/04/02 00:38:56;;;;;;;;;;;;;;;5.71;100.00;-18181.63;4957989;28;20457;-81
2023/04/02 00:41:28;;;;;;;9.43;6.60;;;;;;;5.67;100.00;-18180.66;4954005;28;19914;-81
2023/04/02 00:43:56;;;;;;;8.48;6.50;;;;;;;5.69;100.00;-18181.19;4952885;28;20157;-81
2023/04/02 00:46:28;;;;;;;10.70;7.80;;;;;;;5.67;100.00;-18180.66;4953050;28;20513;-81
2023/04/02 00:48:58;;;;;;;10.82;7.95;;;;;;;5.63;100.00;-18179.69;4969387;28;20134;-81
2023/04/02 00:51:29;;;;;;;;;;;;;;;5.66;100.00;-18180.50;4957112;28;20089;-81
2023/04/02 00:53:59;;;;;;;12.30;9.45;;;;;;;5.56;100.00;-18177.75;4953672;28;19953;-81
2023/04/02 00:56:30;;;;;;;12.38;8.68;;;;;;;5.58;100.00;-18178.31;4953417;28;20594;-81
2023/04/02 00:58:57;;;;;;;12.68;8.77;;;;;;;5.56;100.00;-18177.63;4960583;28;20043;-81
2023/04/02 01:01:26;;;;;;;12.90;10.18;;;;;;;5.60;100.00;-18178.84;4953794;28;20042;-81
2023/04/02 01:03:57;;;;;;;12.70;9.45;;;;;;;5.59;100.00;-18178.44;4954385;28;20035;-81
2023/04/02 01:06:28;;;;;;;13.20;9.60;;;;;;;5.54;100.00;-18177.19;4953688;28;20046;-81
2023/04/02 01:09:02;;;;;;;12.85;9.38;;;;;;;5.58;100.00;-18178.31;4954218;28;20061;-81
2023/04/02 01:11:40;;;;;;;12.27;9.15;;;;;;;5.55;100.00;-18177.34;4956934;28;20067;-81
2023/04/02 01:14:35;;;;;;;12.02;9.75;;;;;;;5.53;100.00;-18176.78;4944998;28;20134;-81
2023/04/02 01:17:10;;;;;;;12.40;9.40;;;;;;;5.46;100.00;-18174.84;4975932;28;20051;-81
2023/04/02 01:19:51;;;;;;;14.57;9.82;;;;;;;5.42;100.00;-18173.88;4950369;28;20051;-81
2023/04/02 01:22:33;;;;;;;13.15;9.38;;;;;;;5.41;100.00;-18173.63;4956223;28;20058;-80
2023/04/02 01:24:59;;;;;;;12.70;9.18;;;;;;;5.40;100.00;-18173.47;4968110;28;20109;-80
2023/04/02 01:27:32;;;;;;;12.93;10.50;;;;;;;5.34;100.00;-18171.81;4953359;28;20047;-81
2023/04/02 01:30:00;;;;;;;11.30;9.85;;;;;;;5.30;100.00;-18170.56;4956333;28;20098;-81
2023/04/02 01:32:28;;;;;;;13.13;9.85;;;;;;;5.31;100.00;-18170.84;4964186;28;20127;-80
2023/04/02 01:34:55;;;;;;;12.40;10.40;;;;;;;5.30;100.00;-18170.56;4969528;28;20043;-81
2023/04/02 01:37:36;;;;;;;14.15;9.65;;;;;;;5.28;100.00;-18170.03;4954067;28;20388;-81
2023/04/02 01:40:40;;;;;;;13.75;9.98;;;;;;;5.19;100.00;-18167.81;4952492;28;20422;-81
2023/04/02 01:43:11;;;;;;;13.20;9.40;;;;;;;5.09;100.00;-18165.06;4957882;28;20046;-81
2023/04/02 01:45:36;;;;;;;12.70;9.77;;;;;;;5.08;100.00;-18164.63;4969199;28;20074;-81
2023/04/02 01:48:12;;;;;;;10.77;8.43;;;;;;;5.11;100.00;-18165.47;4968312;28;20047;-81
2023/04/02 01:50:40;;;;;;;13.68;9.30;;;;;;;5.05;100.00;-18163.94;4959440;28;20071;-81
2023/04/02 01:53:09;;;;;;;10.10;8.40;;;;;;;5.05;100.00;-18163.94;4976631;28;20050;-80
2023/04/02 01:55:37;;;;;;;10.77;8.57;;;;;;;5.13;100.00;-18166.03;4956585;28;20070;-81
2023/04/02 01:58:03;;;;;;;11.75;8.82;;;;;;;5.07;100.00;-18164.50;4960647;28;20035;-81
2023/04/02 02:00:31;;;;;;;12.48;8.80;;;;;;;5.07;100.00;-18164.50;4960335;28;20130;-81
2023/04/02 02:02:59;;;;;;;15.50;8.50;;;;;;;5.05;100.00;-18163.94;4961168;28;20039;-81
2023/04/02 02:05:25;;;;;;;11.75;8.88;;;;;;;4.99;100.00;-18162.28;4959866;28;20043;-81
2023/04/02 02:07:51;;;;;;;10.07;8.02;;;;;;;5.08;100.00;-18164.78;4976535;28;20039;-81
2023/04/02 02:10:31;;;;;;;10.32;7.90;;;;;;;5.04;100.00;-18163.53;4960372;28;20522;-81
2023/04/02 02:12:59;;;;;;;13.52;9.40;;;;;;;5.10;100.00;-18165.31;4985075;28;20047;-81
2023/04/02 02:15:25;;;;;;;12.13;8.80;;;;;;;5.11;100.00;-18165.59;4963369;28;20522;-80
2023/04/02 02:17:57;;;;;;;10.75;8.55;;;;;;;5.14;100.00;-18166.28;4968040;28;20031;-80
2023/04/02 02:20:23;;;;;;;14.30;8.60;;;;;;;5.16;100.00;-18166.97;4956189;28;20114;-80
2023/04/02 02:22:50;;;;;;;14.18;9.00;;;;;;;5.14;100.00;-18166.28;4958759;28;20515;-80
2023/04/02 02:25:19;;;;;;;10.05;8.18;;;;;;;5.05;100.00;-18163.81;4957057;28;20399;-81
2023/04/02 02:27:47;;;;;;;12.02;7.68;;;;;;;5.02;100.00;-18162.97;4957890;28;20047;-81
2023/04/02 02:30:12;;;;;;;10.32;7.95;;;;;;;4.91;100.00;-18160.22;4957325;28;20053;-80
2023/04/02 02:32:50;;;;;;;11.40;7.32;;;;;;;4.93;100.00;-18160.63;4967406;28;20039;-80
2023/04/02 02:35:25;;;;;;;12.65;8.10;;;;;;;4.95;100.00;-18161.31;4975423;28;20056;-81
2023/04/02 02:38:01;;;;;;;10.55;7.43;;;;;;;5.03;100.00;-18163.25;4953107;28;20042;-81
2023/04/02 02:40:35;;;;;;;10.88;7.40;;;;;;;4.91;100.00;-18160.09;4974423;28;20035;-80
2023/04/02 02:43:04;;;;;;;13.75;9.05;;;;;;;4.84;100.00;-18158.28;4966171;28;20046;-81
2023/04/02 02:45:36;;;;;;;13.82;10.10;;;;;;;4.78;100.00;-18156.63;4961011;28;20043;-81
2023/04/02 02:48:03;;;;;;;15.63;10.57;;;;;;;4.67;100.00;-18153.72;4977166;28;20134;-80
2023/04/02 02:50:31;;;;;;;17.25;10.45;;;;;;;4.70;100.00;-18154.44;4977045;28;20062;-80
2023/04/02 02:52:58;;;;;;;17.05;10.30;;;;;;;4.71;100.00;-18154.84;4970796;28;20697;-80
2023/04/02 02:55:30;;;;;;;13.10;9.63;;;;;;;4.73;100.00;-18155.25;4958023;28;20046;-80
2023/04/02 02:58:05;;;;;;;14.60;9.57;;;;;;;4.73;100.00;-18155.38;4964168;28;20039;-80
2023/04/02 03:00:32;;;;;;;14.00;9.40;;;;;;;4.68;100.00;-18154.00;4963540;28;20046;-80
2023/04/02 03:02:58;;;;;;;10.35;8.20;;;;;;;4.61;100.00;-18151.94;4976576;28;20403;-80
2023/04/02 03:05:26;;;;;;;10.57;7.72;;;;;;;4.60;100.00;-18151.66;4960688;28;20039;-80
2023/04/02 03:07:55;;;;;;;11.93;7.40;;;;;;;4.59;100.00;-18151.53;4972238;28;20178;-81
2023/04/02 03:10:36;;;;;;;12.60;7.50;;;;;;;4.53;100.00;-18150.00;4973170;28;20042;-81
2023/04/02 03:13:18;;;;;;;9.73;7.15;;;;;;;4.50;100.00;-18149.03;4974939;28;20582;-81
2023/04/02 03:16:00;;;;;;;11.00;7.43;;;;;;;4.51;100.00;-18149.44;4957722;28;20047;-81
2023/04/02 03:18:31;;;;;;;9.40;7.40;;;;;;;4.50;100.00;-18149.03;4967972;28;20546;-81
2023/04/02 03:21:13;;;;;;;11.90;8.32;;;;;;;4.46;100.00;-18147.94;4967971;28;20054;-80
2023/04/02 03:23:43;;;;;;;12.57;8.00;;;;;;;4.49;100.00;-18148.91;4970806;28;20058;-81
2023/04/02 03:26:21;;;;;;;10.95;7.63;;;;;;;4.48;100.00;-18148.63;4958639;28;20066;-81
2023/04/02 03:29:05;;;;;;;11.25;7.38;;;;;;;4.55;100.00;-18150.41;4962502;28;20053;-81
2023/04/02 03:31:36;;;;;;;12.98;7.72;;;;;;;4.48;100.00;-18148.47;4967021;28;20415;-80
2023/04/02 03:34:14;;;;;;;13.75;8.35;;;;;;;4.41;100.00;-18146.56;4960827;28;20523;-81
2023/04/02 03:37:02;;;;;;;15.40;8.45;;;;;;;4.46;100.00;-18147.94;4988277;28;20041;-81
2023/04/02 03:39:37;;;;;;;13.05;8.32;;;;;;;4.37;100.00;-18145.44;4971753;28;20039;-80
2023/04/02 03:42:08;;;;;;;12.07;7.35;;;;;;;4.39;100.00;-18146.00;4975544;28;20047;-81
2023/04/02 03:44:43;;;;;;;14.60;8.18;;;;;;;4.29;100.00;-18143.50;4957152;28;20045;-81
2023/04/02 03:47:36;;;;;;;12.48;7.07;;;;;;;4.36;100.00;-18145.16;4960835;28;20081;-81
2023/04/02 03:50:07;;;;;;;11.07;6.70;;;;;;;4.27;100.00;-18142.81;4962189;28;20523;-80
2023/04/02 03:52:36;;;;;;;11.55;6.43;;;;;;;4.20;100.00;-18141.03;4969592;28;20558;-80
2023/04/02 03:55:14;;;;;;;12.52;5.90;;;;;;;4.25;100.00;-18142.41;4974656;28;20074;-80
2023/04/02 03:58:06;;;;;;;9.73;6.28;;;;;;;4.19;100.00;-18140.75;4969908;28;20444;-80
2023/04/02 04:00:40;;;;;;;11.65;6.25;;;;;;;4.16;100.00;-18139.91;4963615;28;20062;-80
2023/04/02 04:03:15;;;;;;;12.40;6.85;;;;;;;4.12;100.00;-18138.81;4959194;28;20059;-80
2023/04/02 04:05:52;;;;;;;9.07;6.38;;;;;;;4.11;100.00;-18138.53;4970898;28;20125;-81
2023/04/02 04:08:22;;;;;;;10.25;6.05;;;;;;;4.00;100.00;-18135.50;4973010;28;20462;-80
2023/04/02 04:10:55;;;;;;;8.95;5.90;;;;;;;3.94;100.00;-18133.84;4949098;28;20037;-80
2023/04/02 04:13:28;;;;;;;10.77;5.88;;;;;;;3.88;100.00;-18132.19;4971475;28;20035;-80
2023/04/02 04:15:58;;;;;;;10.65;5.50;;;;;;;3.86;100.00;-18131.63;4971337;28;20051;-81
2023/04/02 04:18:42;;;;;;;10.15;5.47;;;;;;;3.89;100.00;-18132.47;4974269;28;20683;-80
2023/04/02 04:21:21;;;;;;;11.38;5.22;;;;;;;3.86;100.00;-18131.78;4972384;28;20074;-80
2023/04/02 04:23:49;;;;;;;;;;;;;;;3.93;100.00;-18133.72;4974203;28;20134;-80
2023/04/02 04:26:38;;;;;;;10.25;5.90;;;;;;;3.81;100.00;-18130.53;4973799;28;20005;-80
2023/04/02 04:29:17;;;;;;;;;;;;;;;3.80;100.00;-18130.25;4947592;28;20039;-80
2023/04/02 04:31:48;;;;;;;10.52;5.43;;;;;;;3.74;100.00;-18128.59;4987785;28;19925;-81
2023/04/02 04:34:25;;;;;;;8.88;5.18;;;;;;;3.65;100.00;-18125.97;4974972;28;20090;-81
2023/04/02 04:37:00;;;;;;;8.98;5.20;;;;;;;3.69;100.00;-18127.06;4956948;28;20043;-81
2023/04/02 04:39:43;;;;;;;9.68;5.38;;;;;;;3.73;100.00;-18128.31;4969389;28;20043;-81
2023/04/02 04:42:19;;;;;;;8.13;5.00;;;;;;;3.66;100.00;-18126.25;4985868;28;20582;-80
2023/04/02 04:44:56;;;;;;;10.18;5.00;;;;;;;3.66;100.00;-18126.38;4968888;28;20166;-81
2023/04/02 04:47:34;;;;;;;7.88;4.90;;;;;;;3.59;100.00;-18124.44;4950779;28;20046;-80
2023/04/02 04:50:10;;;;;;;11.65;4.47;;;;;;;3.56;100.00;-18123.75;4958989;28;20384;-80
2023/04/02 04:52:39;;;;;;;9.75;4.80;;;;;;;3.56;100.00;-18123.63;4960660;28;20065;-80
2023/04/02 04:55:34;;;;;;;12.40;4.82;;;;;;;3.54;100.00;-18123.06;4949060;28;20058;-80
2023/04/02 04:58:13;;;;;;;9.75;4.70;;;;;;;3.49;100.00;-18121.69;4964560;28;20562;-81
2023/04/02 05:00:43;;;;;;;6.63;4.75;;;;;;;3.34;100.00;-18117.81;4955579;28;20039;-81
2023/04/02 05:03:27;;;;;;;11.90;4.07;;;;;;;3.38;100.00;-18118.78;4956130;28;20043;-80
2023/04/02 05:05:53;;;;;;;7.72;4.10;;;;;;;3.33;100.00;-18117.41;4969725;28;20523;-80
2023/04/02 05:08:21;;;;;;;9.10;3.97;;;;;;;3.35;100.00;-18117.94;4962992;28;20410;-80
2023/04/02 05:10:51;;;;;;;8.73;3.47;;;;;;;3.29;100.00;-18116.28;4960172;28;20521;-80
2023/04/02 05:13:22;;;;;;;8.98;4.10;;;;;;;3.29;100.00;-18116.28;4955308;28;20039;-80
2023/04/02 05:16:08;;;;;;;8.85;3.53;;;;;;;3.27;100.00;-18115.88;4951270;28;20050;-82
2023/04/02 05:18:42;;;;;;;10.23;4.15;;;;;;;3.27;100.00;-18115.88;4952925;28;20053;-82
2023/04/02 05:21:33;;;;;;;8.40;3.28;;;;;;;3.26;100.00;-18115.47;4947661;28;20043;-80
2023/04/02 05:24:31;;;;;;;8.15;3.63;;;;;;;3.21;100.00;-18114.22;4967069;28;20435;-82
2023/04/02 05:27:01;;;;;;;11.60;3.75;;;;;;;3.14;100.00;-18112.44;4952230;28;20051;-81
2023/04/02 05:29:35;;;;;;;7.30;3.40;;;;;;;3.10;100.00;-18111.19;4955759;28;20050;-80
2023/04/02 05:32:11;;;;;;;8.40;3.33;;;;;;;3.13;100.00;-18112.00;4953133;28;20043;-83
2023/04/02 05:34:39;;;;;;;9.05;3.33;;;;;;;3.14;100.00;-18112.44;4966437;28;20043;-80
2023/04/02 05:37:05;;;;;;;7.00;3.00;;;;;;;3.13;100.00;-18112.00;4956694;28;20047;-82
2023/04/02 05:39:31;;;;;;;9.73;3.35;;;;;;;3.09;100.00;-18110.91;4956541;28;20050;-81
2023/04/02 05:42:07;;;;;;;7.20;2.97;;;;;;;3.20;100.00;-18113.94;4953763;28;20049;-81
2023/04/02 05:44:41;;;;;;;8.50;3.60;;;;;;;3.07;100.00;-18110.50;4950520;28;20559;-80
2023/04/02 05:47:22;;;;;;;8.35;3.15;;;;;;;3.06;100.00;-18110.06;4951396;28;20043;-82
2023/04/02 05:49:50;;;;;;;7.10;3.15;;;;;;;3.04;100.00;-18109.66;4953091;28;20042;-80
2023/04/02 05:52:23;;;;;;;8.23;3.00;;;;;;;3.06;100.00;-18110.06;4961836;28;20111;-80
2023/04/02 05:55:01;;;;;;;6.45;2.72;;;;;;;3.04;100.00;-18109.53;4946718;28;20058;-81
2023/04/02 05:57:38;;;;;;;7.75;3.20;;;;;;;3.04;100.00;-18109.66;4960683;28;20043;-80
2023/04/02 06:00:12;;;;;;;8.10;2.97;;;;;;;3.01;100.00;-18108.69;4955838;28;20747;-82
2023/04/02 06:02:51;;;;;;;7.15;2.95;;;;;;;3.04;100.00;-18109.66;4955767;28;20039;-82
2023/04/02 06:05:23;;;;;;;7.25;2.85;;;;;;;3.09;100.00;-18110.91;4959189;28;20043;-81
2023/04/02 06:08:19;;;;;;;10.18;3.75;;;;;;;3.05;100.00;-18109.78;4950633;28;20053;-81
2023/04/02 06:10:58;;;;;;;8.43;3.00;;;;;;;2.99;100.00;-18108.28;4951329;28;20043;-81
2023/04/02 06:13:24;;;;;;;5.95;2.60;;;;;;;3.00;100.00;-18108.56;4956380;28;20050;-81
2023/04/02 06:15:49;;;;;;;7.10;2.78;;;;;;;2.98;100.00;-18108.00;4953755;28;20055;-81
2023/04/02 06:18:23;;;;;;;6.93;2.97;;;;;;;2.97;100.00;-18107.72;4959071;28;20038;-81
2023/04/02 06:20:48;;;;;;;5.93;2.90;;;;;;;3.03;100.00;-18109.25;4958274;28;20093;-81
2023/04/02 06:23:35;;;;;;;8.43;2.70;;;;;;;2.97;100.00;-18107.72;4958142;28;20103;-81
2023/04/02 06:26:21;;;;;;;5.40;3.08;;;;;;;3.06;100.00;-18110.22;4977537;28;20043;-81
2023/04/02 06:28:51;;;;;;;10.05;2.95;;;;;;;3.04;100.00;-18109.53;4955746;28;20055;-81
2023/04/02 06:31:41;;;;;;;6.45;2.75;;;;;;;2.98;100.00;-18108.00;4957468;28;20679;-82
2023/04/02 06:34:15;;;;;;;7.53;2.92;;;;;;;3.11;100.00;-18111.47;4961788;28;20065;-81
2023/04/02 06:36:40;;;;;;;7.43;2.97;;;;;;;3.09;100.00;-18111.03;4947902;28;20058;-84
2023/04/02 06:39:17;;;;;;;7.97;2.95;;;;;;;3.11;100.00;-18111.59;4962895;28;20507;-80
2023/04/02 06:41:42;;;;;;;5.53;2.80;;;;;;;3.10;100.00;-18111.19;4949861;28;20531;-80
2023/04/02 06:44:18;;;;;;;6.72;2.75;;;;;;;3.03;100.00;-18109.25;4949738;28;20047;-80
2023/04/02 06:46:51;;;;;;;5.50;2.83;;;;;;;3.05;100.00;-18109.94;4952538;28;20066;-81
2023/04/02 06:49:29;;;;;;;6.43;2.65;;;;;;;3.03;100.00;-18109.25;4951415;28;20067;-80
2023/04/02 06:51:57;;;;;;;7.88;2.78;;;;;;;3.04;100.00;-18109.66;4939936;28;20055;-81
2023/04/02 06:54:23;;;;;;;6.25;2.90;;;;;;;3.03;100.00;-18109.25;4944666;28;20145;-81
2023/04/02 06:56:51;;;;;;;7.93;2.90;;;;;;;3.07;100.00;-18110.34;4954089;28;20054;-81
2023/04/02 06:59:18;;;;;;;5.43;2.95;;;;;;;3.01;100.00;-18108.69;4952178;28;20082;-81
2023/04/02 07:01:57;;;;;;;5.05;2.45;;;;;;;3.11;100.00;-18111.47;4951856;28;20823;-80
2023/04/02 07:04:24;;;;;;;7.75;2.88;;;;;;;3.04;100.00;-18109.53;4957028;28;20065;-81
2023/04/02 07:06:50;;;;;;;6.60;2.70;;;;;;;3.04;100.00;-18109.66;4961839;28;20042;-80
2023/04/02 07:09:16;;;;;;;5.70;2.72;;;;;;;3.08;100.00;-18110.63;4957884;28;20056;-81
2023/04/02 07:11:41;;;;;;;7.63;2.53;;;;;;;3.09;100.00;-18111.03;4958246;28;20109;-81
2023/04/02 07:14:11;;;;;;;7.88;2.65;;;;;;;3.11;100.00;-18111.59;4965584;28;20046;-80
2023/04/02 07:16:36;;;;;;;6.55;2.53;;;;;;;3.16;100.00;-18112.97;4957508;28;20066;-80
2023/04/02 07:19:03;;;;;;;5.35;2.70;;;;;;;3.20;100.00;-18113.94;4960350;28;20055;-81
2023/04/02 07:21:29;;;;;;;9.73;3.25;;;;;;;3.24;100.00;-18115.06;4955110;28;20050;-80
2023/04/02 07:23:54;;;;;;;7.75;2.65;;;;;;;3.24;100.00;-18115.06;4953585;28;20047;-80
2023/04/02 07:26:24;;;;;;;4.47;2.20;;;;;;;3.28;100.00;-18116.16;4952154;28;20054;-81
2023/04/02 07:28:50;;;;;;;4.55;2.20;;;;;;;3.23;100.00;-18114.63;4950444;28;20053;-80
2023/04/02 07:31:20;;;;;;;8.95;2.55;;;;;;;3.19;100.00;-18113.53;4947569;28;20047;-81
2023/04/02 07:33:46;;;;;;;5.30;2.10;;;;;;;3.27;100.00;-18115.88;4965249;28;20082;-80
2023/04/02 07:36:20;;;;;;;7.65;2.67;;;;;;;3.35;100.00;-18118.09;4956659;28;20182;-80
2023/04/02 07:38:46;;;;;;;6.68;2.30;;;;;;;3.33;100.00;-18117.41;4964826;28;20407;-81
2023/04/02 07:41:12;;;;;;;7.03;2.50;;;;;;;3.33;100.00;-18117.53;4954862;28;20553;-81
2023/04/02 07:43:39;;;;;;;7.28;2.60;;;;;;;3.40;100.00;-18119.34;4951508;28;20059;-80
2023/04/02 07:46:06;;;;;;;3.85;2.00;;;;;;;3.45;100.00;-18120.56;4954779;28;20035;-80
2023/04/02 07:48:31;;;;;;;6.28;2.13;;;;;;;3.53;100.00;-18122.78;4950503;28;20043;-81
2023/04/02 07:50:57;;;;;;;5.80;2.13;;;;;;;3.48;100.00;-18121.41;4953461;28;20050;-80
2023/04/02 07:53:32;;;;;;;7.68;2.15;;;;;;;3.52;100.00;-18122.66;4954203;28;20032;-79
2023/04/02 07:56:00;;;;;;;8.80;2.20;;;;;;;3.48;100.00;-18121.41;4977407;28;20050;-81
2023/04/02 07:58:26;;;;;;;5.15;2.60;;;;;;;3.56;100.00;-18123.75;4954047;28;20042;-81
2023/04/02 08:00:51;;;;;;;5.72;1.90;;;;;;;3.61;100.00;-18125.13;4955730;28;20047;-80
2023/04/02 08:03:17;;;;;;;6.40;2.40;;;;;;;3.53;100.00;-18122.78;4954226;28;20130;-80
2023/04/02 08:05:42;;;;;;;7.72;2.38;;;;;;;3.63;100.00;-18125.56;4963970;28;20039;-81
2023/04/02 08:08:08;;;;;;;6.43;1.90;;;;;;;3.71;100.00;-18127.78;4958109;28;20760;-80
2023/04/02 08:10:33;;;;;;;4.20;2.60;;;;;;;3.73;100.00;-18128.19;4952687;28;20054;-80
2023/04/02 08:12:59;;;;;;;6.45;2.10;;;;;;;3.77;100.00;-18129.28;4955062;28;20047;-80
2023/04/02 08:15:24;;;;;;;6.60;2.25;;;;;;;3.74;100.00;-18128.59;4983115;28;20043;-80
2023/04/02 08:17:50;;;;;;;6.75;2.22;;;;;;;3.81;100.00;-18130.53;4952713;28;20182;-80
2023/04/02 08:20:21;;;;;;;6.38;2.03;;;;;;;3.79;100.00;-18129.84;4950644;28;20047;-80
2023/04/02 08:22:47;;;;;;;4.18;1.98;;;;;;;3.72;100.00;-18127.91;4939998;28;20134;-80
2023/04/02 08:25:13;;;;;;;8.40;2.20;;;;;;;3.70;100.00;-18127.50;4952701;28;20043;-81
2023/04/02 08:27:39;;;;;;;8.77;2.22;;;;;;;3.78;100.00;-18129.69;4947764;28;20038;-81
2023/04/02 08:30:07;;;;;;;4.93;2.20;;;;;;;3.84;100.00;-18131.22;4951966;28;20043;-81
2023/04/02 08:32:33;;;;;;;5.53;2.13;;;;;;;3.91;100.00;-18133.00;4951033;28;20502;-80
2023/04/02 08:34:58;;;;;;;7.85;1.90;;;;;;;3.82;100.00;-18130.81;4958005;28;20114;-80
2023/04/02 08:37:24;;;;;;;4.25;2.47;;;;;;;3.82;100.00;-18130.81;4966311;28;20054;-80
2023/04/02 08:39:49;;;;;;;10.63;4.93;;;;;;;3.84;100.00;-18131.34;4950582;28;20043;-80
2023/04/02 08:42:35;;;;;;;6.95;2.67;;;;;;;3.85;100.00;-18131.50;4953596;28;20477;-80
2023/04/02 08:45:20;;;;;;;5.30;2.58;;;;;;;3.92;100.00;-18133.44;4965653;28;20058;-80
2023/04/02 08:47:47;;;;;;;4.03;1.90;;;;;;;3.88;100.00;-18132.19;4955224;28;20047;-80
2023/04/02 08:50:31;;;;;;;8.05;2.50;;;;;;;3.94;100.00;-18133.97;4949729;28;20035;-80
2023/04/02 08:52:59;;;;;;;6.38;2.30;;;;;;;3.81;100.00;-18130.38;4952071;28;20411;-81
2023/04/02 08:55:46;;;;;;;5.20;2.47;;;;;;;3.82;100.00;-18130.66;4949770;28;20047;-81
2023/04/02 08:58:43;;;;;;;4.90;1.98;;;;;;;3.93;100.00;-18133.72;4963467;28;20051;-80
2023/04/02 09:01:17;;;;;;;5.57;2.00;;;;;;;3.83;100.00;-18131.09;4932545;28;20050;-80
2023/04/02 09:03:48;;;;;;;6.32;2.80;;;;;;;3.80;100.00;-18130.13;4958882;28;20054;-80
2023/04/02 09:06:17;;;;;;;3.67;1.88;;;;;;;3.78;100.00;-18129.56;4957373;28;20119;-81
2023/04/02 09:08:45;;;;;;;6.90;2.90;;;;;;;3.81;100.00;-18130.38;4965031;28;20034;-80
2023/04/02 09:11:20;;;;;;;4.72;1.98;;;;;;;3.81;100.00;-18130.53;4957762;28;20035;-80
2023/04/02 09:13:51;;;;;;;6.75;3.70;;;;;;;3.78;100.00;-18129.56;4957607;28;20054;-80
2023/04/02 09:16:21;;;;;;;5.95;3.17;;;;;;;3.76;100.00;-18129.00;4953977;28;20036;-80
2023/04/02 09:18:49;;;;;;;8.10;4.47;;;;;;;3.83;100.00;-18131.09;4951596;28;20110;-80
2023/04/02 09:21:20;;;;;;;5.70;2.28;;;;;;;3.93;100.00;-18133.72;4953880;28;20447;-80
2023/04/02 09:23:46;;;;;;;11.77;7.03;;;;;;;3.85;100.00;-18131.50;4954731;28;20115;-80
2023/04/02 09:26:22;;;;;;;6.88;2.60;;;;;;;3.91;100.00;-18133.00;4948047;28;20043;-80
2023/04/02 09:28:50;;;;;;;6.45;3.53;;;;;;;3.82;100.00;-18130.66;4948804;28;20210;-80
2023/04/02 09:31:29;;;;;;;5.47;2.80;;;;;;;3.97;100.00;-18134.66;4951974;28;20527;-80
2023/04/02 09:33:55;;;;;;;6.63;4.25;;;;;;;4.02;100.00;-18136.06;4956794;28;20051;-80
2023/04/02 09:36:36;;;;;;;4.05;2.30;;;;;;;4.03;100.00;-18136.47;4951261;28;20034;-80
2023/04/02 09:39:18;;;;;;;5.90;2.47;;;;;;;4.13;100.00;-18139.09;4962933;28;20427;-80
2023/04/02 09:41:45;;;;;;;4.78;2.25;;;;;;;4.16;100.00;-18139.91;4970802;28;20122;-80
2023/04/02 09:44:10;;;;;;;5.07;1.90;;;;;;;4.08;100.00;-18137.72;4959689;28;20058;-80
2023/04/02 09:46:36;;;;;;;5.57;2.50;;;;;;;4.11;100.00;-18138.53;4963957;28;20495;-81
2023/04/02 09:49:01;;;;;;;4.90;2.28;;;;;;;4.09;100.00;-18138.00;4977052;28;20046;-83
2023/04/02 09:51:33;;;;;;;5.20;2.63;;;;;;;4.20;100.00;-18141.03;4972830;28;20094;-87
2023/04/02 09:54:01;;;;;;;4.65;2.03;;;;;;;4.40;100.00;-18146.41;4981861;28;20431;-83
2023/04/02 09:56:27;;;;;;;5.07;2.28;;;;;;;4.45;100.00;-18147.78;4955709;28;20066;-84
2023/04/02 09:59:15;;;;;;;4.07;1.80;;;;;;;4.46;100.00;-18147.94;4948466;28;20575;-84
2023/04/02 10:01:46;;;;;;;4.65;2.35;;;;;;;4.44;100.00;-18147.38;4964120;28;20045;-84
2023/04/02 10:04:31;;;;;;;4.53;1.92;;;;;;;4.63;100.00;-18152.50;4953339;28;20114;-84
2023/04/02 10:06:57;;;;;;;5.70;2.42;;;;;;;4.61;100.00;-18152.06;4981815;28;20071;-85
2023/04/02 10:09:37;;;;;;;5.40;2.55;;;;;;;4.82;100.00;-18157.72;4946809;28;20447;-84
2023/04/02 10:12:09;;;;;;;5.30;2.80;;;;;;;4.91;100.00;-18160.09;4962193;28;20105;-84
2023/04/02 10:14:38;;;;;;;6.15;3.30;;;;;;;4.87;100.00;-18158.97;4947692;28;20036;-84
2023/04/02 10:17:10;;;;;;;8.93;4.93;;;;;;;4.77;100.00;-18156.22;4950794;28;20101;-82
2023/04/02 10:19:39;;;;;;;7.97;3.88;;;;;;;4.81;100.00;-18157.47;4959329;28;20050;-84
2023/04/02 10:22:15;;;;;;;4.70;1.90;;;;;;;5.01;100.00;-18162.84;4958926;28;20047;-84
2023/04/02 10:24:40;;;;;;;4.75;2.50;;;;;;;5.12;100.00;-18165.88;4962511;28;20555;-80
2023/04/02 10:27:28;;;;;;;6.05;1.80;;;;;;;5.38;100.00;-18172.91;4963034;28;20057;-85
2023/04/02 10:30:10;;;;;;;4.53;3.40;;;;;;;5.52;100.00;-18176.63;4976816;28;20043;-85
2023/04/02 10:32:49;;;;;;;5.38;2.40;;;;;;;5.95;100.00;-18188.22;4964883;28;20035;-84
2023/04/02 10:35:36;;;;;;;5.97;3.33;;;;;;;5.95;100.00;-18188.22;4944846;28;20118;-81
2023/04/02 10:38:14;;;;;;;5.90;1.88;;;;;;;6.18;100.00;-18194.44;4952069;28;20046;-85
2023/04/02 10:41:06;;;;;;;5.63;1.98;;;;;;;6.36;100.00;-18199.28;4946469;28;20050;-84
2023/04/02 10:43:55;;;;;;;3.47;1.30;;;;;;;6.61;100.00;-18205.88;4961308;28;20043;-84
2023/04/02 10:46:59;;;;;;;3.95;1.30;;;;;;;6.75;100.00;-18209.75;4972455;28;20050;-82
2023/04/02 10:49:39;;;;;;;3.95;1.35;;;;;;;6.86;100.00;-18212.78;4964410;28;20131;-82
2023/04/02 10:52:44;;;;;;;6.32;2.00;;;;;;;7.07;100.00;-18218.44;4957905;28;20070;-83
2023/04/02 10:55:19;;;;;;;4.10;1.90;;;;;;;7.35;100.00;-18226.00;4940267;28;20054;-84
2023/04/02 10:57:45;;;;;;;4.72;1.85;;;;;;;7.58;100.00;-18232.22;4952052;28;20110;-85
2023/04/02 11:00:11;;;;;;;7.00;1.70;;;;;;;7.75;100.00;-18236.75;4951397;28;20487;-81
2023/04/02 11:03:21;;;;;;;5.07;1.75;;;;;;;7.79;100.00;-18237.84;4951289;28;20054;-85
2023/04/02 11:05:52;;;;;;;5.32;1.38;;;;;;;7.78;100.00;-18237.59;4968799;28;20050;-84
2023/04/02 11:08:25;;;;;;;4.22;1.50;;;;;;;7.73;100.00;-18236.06;4985943;28;20430;-81
2023/04/02 11:11:11;;;;;;;6.45;1.60;;;;;;;7.83;100.00;-18238.97;4972453;28;20135;-85
2023/04/02 11:13:57;;;;;;;4.05;1.35;;;;;;;7.81;100.00;-18238.28;4948241;28;20042;-85
2023/04/02 11:16:23;;;;;;;3.65;1.13;;;;;;;7.80;100.00;-18238.00;4948865;28;20059;-85
2023/04/02 11:19:13;;;;;;;3.35;1.50;;;;;;;7.92;100.00;-18241.31;4965421;28;20121;-84
2023/04/02 11:21:38;;;;;;;7.43;1.60;;;;;;;8.09;100.00;-18245.84;4951343;28;20039;-85
2023/04/02 11:24:05;;;;;;;4.32;1.70;;;;;;;7.96;100.00;-18242.25;4946527;28;20206;-84
2023/04/02 11:26:32;;;;;;;7.82;3.33;;;;;;;7.72;100.00;-18235.78;4947045;28;20039;-84
2023/04/02 11:29:27;;;;;;;3.40;1.70;;;;;;;7.58;100.00;-18232.06;4951672;28;20039;-85
2023/04/02 11:32:26;;;;;;;5.80;2.08;;;;;;;7.72;100.00;-18235.94;4944242;28;20526;-85
2023/04/02 11:34:52;;;;;;;4.93;1.50;;;;;;;7.93;100.00;-18241.44;4970949;28;20046;-84
2023/04/02 11:37:43;;;;;;;5.20;1.88;;;;;;;7.99;100.00;-18243.09;4950261;28;20119;-85
2023/04/02 11:40:14;;;;;;;2.85;1.15;;;;;;;8.25;100.00;-18250.25;4965339;28;20043;-85
2023/04/02 11:42:40;;;;;;;4.13;1.60;;;;;;;8.23;100.00;-18249.69;4949076;28;20043;-84
2023/04/02 11:45:27;;;;;;;5.68;1.67;;;;;;;8.26;100.00;-18250.38;4954585;28;20616;-85
2023/04/02 11:47:59;;;;;;;5.00;1.75;;;;;;;8.42;100.00;-18254.66;4962501;28;20046;-86
2023/04/02 11:50:44;;;;;;;5.45;1.60;;;;;;;8.61;100.00;-18259.88;4947806;28;20043;-84
2023/04/02 11:53:10;;;;;;;4.40;1.27;;;;;;;8.74;100.00;-18263.31;4962011;28;20054;-86